createdAt,value
2017-02-06T00:00:00.971Z,1003.87
2017-02-06T00:00:27.122Z,1003.83
2017-02-06T00:00:53.280Z,1003.83
2017-02-06T00:01:19.451Z,1003.82
2017-02-06T00:01:45.605Z,1003.82
2017-02-06T00:02:11.725Z,1003.83
2017-02-06T00:02:37.928Z,1003.82
2017-02-06T00:03:04.036Z,1003.84
2017-02-06T00:03:30.155Z,1003.86
2017-02-06T00:03:56.252Z,1003.86
2017-02-06T00:04:22.424Z,1003.88
2017-02-06T00:04:48.562Z,1003.91
2017-02-06T00:05:14.750Z,1003.89
2017-02-06T00:05:40.909Z,1003.9
2017-02-06T00:06:07.065Z,1003.94
2017-02-06T00:06:33.205Z,1003.89
2017-02-06T00:06:59.287Z,1003.9
2017-02-06T00:07:25.471Z,1003.91
2017-02-06T00:07:51.662Z,1003.9
2017-02-06T00:08:17.833Z,1003.96
2017-02-06T00:08:43.934Z,1003.96
2017-02-06T00:09:10.123Z,1003.94
2017-02-06T00:09:36.254Z,1003.97
2017-02-06T00:10:02.384Z,1003.96
2017-02-06T00:10:28.557Z,1004
2017-02-06T00:10:54.758Z,1003.97
2017-02-06T00:11:20.928Z,1004.01
2017-02-06T00:11:47.074Z,1004.01
2017-02-06T00:12:13.194Z,1003.97
2017-02-06T00:12:39.336Z,1003.99
2017-02-06T00:13:05.475Z,1003.99
2017-02-06T00:13:31.593Z,1003.99
2017-02-06T00:13:57.793Z,1004.02
2017-02-06T00:14:23.967Z,1004.01
2017-02-06T00:14:50.093Z,1004.03
2017-02-06T00:15:16.236Z,1004.01
2017-02-06T00:15:42.417Z,1004.06
2017-02-06T00:16:08.575Z,1004.01
2017-02-06T00:16:34.695Z,1004.02
2017-02-06T00:17:00.877Z,1004.1
2017-02-06T00:17:27.108Z,1004.08
2017-02-06T00:17:53.233Z,1004.07
2017-02-06T00:18:19.407Z,1004.08
2017-02-06T00:18:45.605Z,1004.09
2017-02-06T00:19:11.798Z,1004.1
2017-02-06T00:19:37.914Z,1004.11
2017-02-06T00:20:04.049Z,1004.13
2017-02-06T00:20:30.200Z,1004.15
2017-02-06T00:20:56.391Z,1004.18
2017-02-06T00:21:22.514Z,1004.14
2017-02-06T00:21:48.598Z,1004.18
2017-02-06T00:22:14.825Z,1004.13
2017-02-06T00:22:40.927Z,1004.14
2017-02-06T00:23:07.044Z,1004.18
2017-02-06T00:23:33.207Z,1004.17
2017-02-06T00:23:59.405Z,1004.2
2017-02-06T00:24:25.516Z,1004.17
2017-02-06T00:24:51.701Z,1004.19
2017-02-06T00:25:17.897Z,1004.2
2017-02-06T00:25:44.031Z,1004.19
2017-02-06T00:26:10.191Z,1004.21
2017-02-06T00:26:36.336Z,1004.22
2017-02-06T00:27:02.466Z,1004.21
2017-02-06T00:27:28.633Z,1004.21
2017-02-06T00:27:54.738Z,1004.21
2017-02-06T00:28:20.862Z,1004.21
2017-02-06T00:28:46.970Z,1004.22
2017-02-06T00:29:13.090Z,1004.17
2017-02-06T00:29:39.263Z,1004.18
2017-02-06T00:30:05.462Z,1004.19
2017-02-06T00:30:31.608Z,1004.21
2017-02-06T00:30:57.751Z,1004.26
2017-02-06T00:31:23.923Z,1004.25
2017-02-06T00:31:50.044Z,1004.27
2017-02-06T00:32:16.217Z,1004.28
2017-02-06T00:32:42.376Z,1004.27
2017-02-06T00:33:08.513Z,1004.27
2017-02-06T00:33:34.677Z,1004.27
2017-02-06T00:34:00.832Z,1004.22
2017-02-06T00:34:27.001Z,1004.29
2017-02-06T00:34:53.141Z,1004.24
2017-02-06T00:35:19.270Z,1004.31
2017-02-06T00:35:45.464Z,1004.29
2017-02-06T00:36:11.635Z,1004.32
2017-02-06T00:36:37.728Z,1004.33
2017-02-06T00:37:03.850Z,1004.34
2017-02-06T00:37:30.011Z,1004.35
2017-02-06T00:37:56.171Z,1004.35
2017-02-06T00:38:22.264Z,1004.33
2017-02-06T00:38:48.385Z,1004.34
2017-02-06T00:39:14.553Z,1004.3
2017-02-06T00:39:40.724Z,1004.34
2017-02-06T00:40:06.851Z,1004.31
2017-02-06T00:40:33.011Z,1004.35
2017-02-06T00:40:59.151Z,1004.3
2017-02-06T00:41:25.291Z,1004.35
2017-02-06T00:41:51.427Z,1004.32
2017-02-06T00:42:17.585Z,1004.33
2017-02-06T00:42:43.705Z,1004.33
2017-02-06T00:43:09.800Z,1004.35
2017-02-06T00:43:35.978Z,1004.35
2017-02-06T00:44:02.142Z,1004.36
2017-02-06T00:44:28.286Z,1004.32
2017-02-06T00:44:54.452Z,1004.3
2017-02-06T00:45:20.625Z,1004.32
2017-02-06T00:45:46.721Z,1004.33
2017-02-06T00:46:12.815Z,1004.36
2017-02-06T00:46:38.976Z,1004.33
2017-02-06T00:47:05.160Z,1004.34
2017-02-06T00:47:31.303Z,1004.33
2017-02-06T00:47:57.438Z,1004.36
2017-02-06T00:48:23.557Z,1004.33
2017-02-06T00:48:49.688Z,1004.34
2017-02-06T00:49:15.843Z,1004.35
2017-02-06T00:49:41.937Z,1004.38
2017-02-06T00:50:08.095Z,1004.37
2017-02-06T00:50:34.224Z,1004.39
2017-02-06T00:51:00.372Z,1004.4
2017-02-06T00:51:26.531Z,1004.37
2017-02-06T00:51:52.691Z,1004.37
2017-02-06T00:52:18.834Z,1004.39
2017-02-06T00:52:44.975Z,1004.4
2017-02-06T00:53:11.142Z,1004.38
2017-02-06T00:53:37.262Z,1004.36
2017-02-06T00:54:03.390Z,1004.38
2017-02-06T00:54:29.500Z,1004.39
2017-02-06T00:54:55.663Z,1004.38
2017-02-06T00:55:21.774Z,1004.42
2017-02-06T00:55:47.910Z,1004.36
2017-02-06T00:56:14.042Z,1004.38
2017-02-06T00:56:40.178Z,1004.38
2017-02-06T00:57:06.267Z,1004.38
2017-02-06T00:57:32.429Z,1004.36
2017-02-06T00:57:58.572Z,1004.4
2017-02-06T00:58:24.691Z,1004.4
2017-02-06T00:58:50.786Z,1004.38
2017-02-06T00:59:16.937Z,1004.43
2017-02-06T00:59:43.116Z,1004.45
2017-02-06T01:00:09.280Z,1004.46
2017-02-06T01:00:35.377Z,1004.45
2017-02-06T01:01:01.527Z,1004.45
2017-02-06T01:01:27.689Z,1004.44
2017-02-06T01:01:53.782Z,1004.45
2017-02-06T01:02:19.950Z,1004.45
2017-02-06T01:02:46.123Z,1004.43
2017-02-06T01:03:12.336Z,1004.46
2017-02-06T01:03:38.448Z,1004.44
2017-02-06T01:04:04.580Z,1004.46
2017-02-06T01:04:30.678Z,1004.45
2017-02-06T01:04:56.803Z,1004.45
2017-02-06T01:05:22.962Z,1004.47
2017-02-06T01:05:49.104Z,1004.47
2017-02-06T01:06:15.218Z,1004.45
2017-02-06T01:06:41.375Z,1004.43
2017-02-06T01:07:07.491Z,1004.45
2017-02-06T01:07:33.623Z,1004.46
2017-02-06T01:07:59.787Z,1004.46
2017-02-06T01:08:25.900Z,1004.43
2017-02-06T01:08:52.087Z,1004.48
2017-02-06T01:09:18.250Z,1004.48
2017-02-06T01:09:44.397Z,1004.47
2017-02-06T01:10:10.575Z,1004.47
2017-02-06T01:10:36.698Z,1004.49
2017-02-06T01:11:02.862Z,1004.5
2017-02-06T01:11:28.966Z,1004.49
2017-02-06T01:11:55.139Z,1004.49
2017-02-06T01:12:21.291Z,1004.54
2017-02-06T01:12:47.483Z,1004.53
2017-02-06T01:13:13.567Z,1004.55
2017-02-06T01:13:39.669Z,1004.53
2017-02-06T01:14:05.847Z,1004.58
2017-02-06T01:14:31.933Z,1004.54
2017-02-06T01:14:58.107Z,1004.55
2017-02-06T01:15:24.211Z,1004.57
2017-02-06T01:15:50.396Z,1004.59
2017-02-06T01:16:16.505Z,1004.58
2017-02-06T01:16:42.611Z,1004.57
2017-02-06T01:17:08.798Z,1004.6
2017-02-06T01:17:34.909Z,1004.56
2017-02-06T01:18:01.053Z,1004.6
2017-02-06T01:18:27.213Z,1004.61
2017-02-06T01:18:53.333Z,1004.62
2017-02-06T01:19:19.461Z,1004.58
2017-02-06T01:19:45.658Z,1004.57
2017-02-06T01:20:11.840Z,1004.6
2017-02-06T01:20:37.973Z,1004.6
2017-02-06T01:21:04.131Z,1004.64
2017-02-06T01:21:30.279Z,1004.64
2017-02-06T01:21:56.388Z,1004.65
2017-02-06T01:22:22.523Z,1004.62
2017-02-06T01:22:48.650Z,1004.65
2017-02-06T01:23:14.809Z,1004.66
2017-02-06T01:23:40.954Z,1004.68
2017-02-06T01:24:07.051Z,1004.65
2017-02-06T01:24:33.187Z,1004.71
2017-02-06T01:24:59.323Z,1004.67
2017-02-06T01:25:25.421Z,1004.71
2017-02-06T01:25:51.586Z,1004.75
2017-02-06T01:26:17.707Z,1004.76
2017-02-06T01:26:43.855Z,1004.76
2017-02-06T01:27:09.982Z,1004.78
2017-02-06T01:27:36.138Z,1004.78
2017-02-06T01:28:02.270Z,1004.77
2017-02-06T01:28:28.434Z,1004.79
2017-02-06T01:28:54.576Z,1004.82
2017-02-06T01:29:20.716Z,1004.84
2017-02-06T01:29:46.835Z,1004.85
2017-02-06T01:30:12.946Z,1004.84
2017-02-06T01:30:39.094Z,1004.83
2017-02-06T01:31:05.219Z,1004.89
2017-02-06T01:31:31.362Z,1004.83
2017-02-06T01:31:57.522Z,1004.86
2017-02-06T01:32:23.648Z,1004.89
2017-02-06T01:32:49.783Z,1004.89
2017-02-06T01:33:15.932Z,1004.9
2017-02-06T01:33:42.079Z,1004.91
2017-02-06T01:34:08.248Z,1004.94
2017-02-06T01:34:34.378Z,1004.94
2017-02-06T01:35:00.497Z,1004.95
2017-02-06T01:35:26.660Z,1004.94
2017-02-06T01:35:52.794Z,1004.93
2017-02-06T01:36:18.902Z,1004.98
2017-02-06T01:36:45.061Z,1005
2017-02-06T01:37:11.204Z,1005
2017-02-06T01:37:37.316Z,1004.98
2017-02-06T01:38:03.465Z,1004.99
2017-02-06T01:38:29.585Z,1005
2017-02-06T01:38:55.747Z,1004.99
2017-02-06T01:39:21.868Z,1005.01
2017-02-06T01:39:48.043Z,1004.98
2017-02-06T01:40:14.149Z,1005.01
2017-02-06T01:40:40.317Z,1005
2017-02-06T01:41:06.398Z,1005.01
2017-02-06T01:41:32.560Z,1005.05
2017-02-06T01:41:58.692Z,1005
2017-02-06T01:42:24.799Z,1005
2017-02-06T01:42:50.916Z,1005.04
2017-02-06T01:43:17.048Z,1005.02
2017-02-06T01:43:43.155Z,1005.03
2017-02-06T01:44:09.315Z,1005.07
2017-02-06T01:44:35.463Z,1005.03
2017-02-06T01:45:01.616Z,1005.05
2017-02-06T01:45:27.747Z,1005.05
2017-02-06T01:45:53.860Z,1005.04
2017-02-06T01:46:19.957Z,1005.06
2017-02-06T01:46:46.123Z,1005.06
2017-02-06T01:47:12.273Z,1005.05
2017-02-06T01:47:38.385Z,1005.06
2017-02-06T01:48:04.522Z,1005.08
2017-02-06T01:48:30.643Z,1005.07
2017-02-06T01:48:56.730Z,1005.08
2017-02-06T01:49:22.868Z,1005.04
2017-02-06T01:49:49.017Z,1005.1
2017-02-06T01:50:15.172Z,1005.09
2017-02-06T01:50:41.294Z,1005.09
2017-02-06T01:51:07.404Z,1005.12
2017-02-06T01:51:33.546Z,1005.13
2017-02-06T01:51:59.694Z,1005.16
2017-02-06T01:52:25.841Z,1005.15
2017-02-06T01:52:51.972Z,1005.17
2017-02-06T01:53:18.102Z,1005.16
2017-02-06T01:53:44.214Z,1005.17
2017-02-06T01:54:10.374Z,1005.2
2017-02-06T01:54:36.550Z,1005.18
2017-02-06T01:55:02.666Z,1005.21
2017-02-06T01:55:28.822Z,1005.23
2017-02-06T01:55:54.919Z,1005.24
2017-02-06T01:56:21.046Z,1005.21
2017-02-06T01:56:47.208Z,1005.28
2017-02-06T01:57:13.318Z,1005.26
2017-02-06T01:57:39.487Z,1005.24
2017-02-06T01:58:05.656Z,1005.31
2017-02-06T01:58:31.764Z,1005.32
2017-02-06T01:58:57.867Z,1005.28
2017-02-06T01:59:24.001Z,1005.3
2017-02-06T01:59:50.116Z,1005.31
2017-02-06T02:00:16.256Z,1005.33
2017-02-06T02:00:42.451Z,1005.37
2017-02-06T02:01:08.568Z,1005.4
2017-02-06T02:01:34.692Z,1005.38
2017-02-06T02:02:00.824Z,1005.4
2017-02-06T02:02:26.955Z,1005.39
2017-02-06T02:02:53.042Z,1005.38
2017-02-06T02:03:19.208Z,1005.39
2017-02-06T02:03:45.307Z,1005.46
2017-02-06T02:04:11.430Z,1005.38
2017-02-06T02:04:37.534Z,1005.39
2017-02-06T02:05:03.669Z,1005.42
2017-02-06T02:05:29.782Z,1005.45
2017-02-06T02:05:55.924Z,1005.43
2017-02-06T02:06:22.047Z,1005.46
2017-02-06T02:06:48.230Z,1005.46
2017-02-06T02:07:14.355Z,1005.44
2017-02-06T02:07:40.499Z,1005.5
2017-02-06T02:08:06.626Z,1005.47
2017-02-06T02:08:32.763Z,1005.46
2017-02-06T02:08:58.871Z,1005.5
2017-02-06T02:09:25.051Z,1005.48
2017-02-06T02:09:51.208Z,1005.51
2017-02-06T02:10:17.333Z,1005.53
2017-02-06T02:10:43.431Z,1005.48
2017-02-06T02:11:09.566Z,1005.51
2017-02-06T02:11:35.710Z,1005.53
2017-02-06T02:12:01.871Z,1005.52
2017-02-06T02:12:27.986Z,1005.52
2017-02-06T02:12:54.113Z,1005.56
2017-02-06T02:13:20.276Z,1005.55
2017-02-06T02:13:46.366Z,1005.53
2017-02-06T02:14:12.508Z,1005.58
2017-02-06T02:14:38.696Z,1005.58
2017-02-06T02:15:04.820Z,1005.56
2017-02-06T02:15:31.011Z,1005.56
2017-02-06T02:15:57.172Z,1005.6
2017-02-06T02:16:23.293Z,1005.6
2017-02-06T02:16:49.411Z,1005.58
2017-02-06T02:17:15.573Z,1005.6
2017-02-06T02:17:41.670Z,1005.6
2017-02-06T02:18:07.798Z,1005.62
2017-02-06T02:18:33.896Z,1005.63
2017-02-06T02:18:59.981Z,1005.63
2017-02-06T02:19:26.188Z,1005.65
2017-02-06T02:19:52.343Z,1005.67
2017-02-06T02:20:18.456Z,1005.69
2017-02-06T02:20:44.584Z,1005.68
2017-02-06T02:21:10.739Z,1005.71
2017-02-06T02:21:36.909Z,1005.74
2017-02-06T02:22:03.117Z,1005.74
2017-02-06T02:22:29.274Z,1005.75
2017-02-06T02:22:55.425Z,1005.74
2017-02-06T02:23:21.581Z,1005.74
2017-02-06T02:23:47.700Z,1005.76
2017-02-06T02:24:13.804Z,1005.76
2017-02-06T02:24:39.931Z,1005.77
2017-02-06T02:25:06.074Z,1005.8
2017-02-06T02:25:32.201Z,1005.78
2017-02-06T02:25:58.334Z,1005.78
2017-02-06T02:26:24.453Z,1005.76
2017-02-06T02:26:50.583Z,1005.83
2017-02-06T02:27:16.686Z,1005.84
2017-02-06T02:27:42.776Z,1005.85
2017-02-06T02:28:08.872Z,1005.87
2017-02-06T02:28:34.996Z,1005.88
2017-02-06T02:29:01.183Z,1005.88
2017-02-06T02:29:27.352Z,1005.88
2017-02-06T02:29:53.521Z,1005.88
2017-02-06T02:30:19.677Z,1005.91
2017-02-06T02:30:45.859Z,1005.94
2017-02-06T02:31:12.054Z,1006.02
2017-02-06T02:31:38.182Z,1005.98
2017-02-06T02:32:04.397Z,1006.02
2017-02-06T02:32:30.519Z,1006.02
2017-02-06T02:32:56.662Z,1006.06
2017-02-06T02:33:22.830Z,1006.05
2017-02-06T02:33:48.962Z,1006.03
2017-02-06T02:34:15.085Z,1006.07
2017-02-06T02:34:41.236Z,1006.08
2017-02-06T02:35:07.402Z,1006.11
2017-02-06T02:35:33.592Z,1006.12
2017-02-06T02:35:59.686Z,1006.09
2017-02-06T02:36:25.802Z,1006.13
2017-02-06T02:36:51.961Z,1006.14
2017-02-06T02:37:18.115Z,1006.1
2017-02-06T02:37:44.213Z,1006.14
2017-02-06T02:38:10.316Z,1006.14
2017-02-06T02:38:36.509Z,1006.16
2017-02-06T02:39:02.614Z,1006.22
2017-02-06T02:39:28.753Z,1006.22
2017-02-06T02:39:54.916Z,1006.22
2017-02-06T02:40:21.080Z,1006.23
2017-02-06T02:40:47.180Z,1006.2
2017-02-06T02:41:13.295Z,1006.24
2017-02-06T02:41:39.404Z,1006.21
2017-02-06T02:42:05.560Z,1006.3
2017-02-06T02:42:31.678Z,1006.29
2017-02-06T02:42:57.884Z,1006.31
2017-02-06T02:43:24.013Z,1006.3
2017-02-06T02:43:50.184Z,1006.34
2017-02-06T02:44:16.284Z,1006.32
2017-02-06T02:44:42.449Z,1006.34
2017-02-06T02:45:08.562Z,1006.35
2017-02-06T02:45:34.655Z,1006.34
2017-02-06T02:46:00.760Z,1006.34
2017-02-06T02:46:26.855Z,1006.33
2017-02-06T02:46:52.965Z,1006.35
2017-02-06T02:47:19.158Z,1006.37
2017-02-06T02:47:45.287Z,1006.37
2017-02-06T02:48:11.482Z,1006.38
2017-02-06T02:48:37.643Z,1006.39
2017-02-06T02:49:03.770Z,1006.39
2017-02-06T02:49:29.913Z,1006.39
2017-02-06T02:49:56.037Z,1006.37
2017-02-06T02:50:22.240Z,1006.43
2017-02-06T02:50:48.428Z,1006.43
2017-02-06T02:51:14.543Z,1006.38
2017-02-06T02:51:40.687Z,1006.41
2017-02-06T02:52:06.874Z,1006.43
2017-02-06T02:52:33.006Z,1006.45
2017-02-06T02:52:59.144Z,1006.43
2017-02-06T02:53:25.318Z,1006.47
2017-02-06T02:53:51.479Z,1006.48
2017-02-06T02:54:17.617Z,1006.44
2017-02-06T02:54:43.775Z,1006.46
2017-02-06T02:55:09.911Z,1006.46
2017-02-06T02:55:36.024Z,1006.47
2017-02-06T02:56:02.143Z,1006.42
2017-02-06T02:56:28.300Z,1006.47
2017-02-06T02:56:54.437Z,1006.47
2017-02-06T02:57:20.580Z,1006.44
2017-02-06T02:57:46.748Z,1006.45
2017-02-06T02:58:12.896Z,1006.46
2017-02-06T02:58:39.067Z,1006.43
2017-02-06T02:59:05.181Z,1006.49
2017-02-06T02:59:31.331Z,1006.49
2017-02-06T02:59:57.458Z,1006.5
2017-02-06T03:00:23.638Z,1006.48
2017-02-06T03:00:49.746Z,1006.5
2017-02-06T03:01:15.920Z,1006.5
2017-02-06T03:01:42.094Z,1006.49
2017-02-06T03:02:08.224Z,1006.53
2017-02-06T03:02:34.314Z,1006.53
2017-02-06T03:03:00.458Z,1006.56
2017-02-06T03:03:26.593Z,1006.55
2017-02-06T03:03:52.744Z,1006.57
2017-02-06T03:04:18.851Z,1006.59
2017-02-06T03:04:45.016Z,1006.63
2017-02-06T03:05:11.142Z,1006.67
2017-02-06T03:05:37.291Z,1006.66
2017-02-06T03:06:03.427Z,1006.65
2017-02-06T03:06:29.612Z,1006.68
2017-02-06T03:06:55.722Z,1006.67
2017-02-06T03:07:21.909Z,1006.7
2017-02-06T03:07:48.077Z,1006.71
2017-02-06T03:08:14.221Z,1006.72
2017-02-06T03:08:40.409Z,1006.68
2017-02-06T03:09:06.498Z,1006.7
2017-02-06T03:09:32.683Z,1006.73
2017-02-06T03:09:58.866Z,1006.72
2017-02-06T03:10:25.009Z,1006.72
2017-02-06T03:10:51.156Z,1006.73
2017-02-06T03:11:17.291Z,1006.72
2017-02-06T03:11:43.430Z,1006.74
2017-02-06T03:12:09.528Z,1006.76
2017-02-06T03:12:35.632Z,1006.73
2017-02-06T03:13:01.795Z,1006.77
2017-02-06T03:13:27.992Z,1006.74
2017-02-06T03:13:54.127Z,1006.76
2017-02-06T03:14:20.227Z,1006.77
2017-02-06T03:14:46.361Z,1006.8
2017-02-06T03:15:12.474Z,1006.8
2017-02-06T03:15:38.640Z,1006.76
2017-02-06T03:16:04.771Z,1006.81
2017-02-06T03:16:30.940Z,1006.8
2017-02-06T03:16:57.056Z,1006.79
2017-02-06T03:17:23.166Z,1006.81
2017-02-06T03:17:49.307Z,1006.82
2017-02-06T03:18:15.499Z,1006.83
2017-02-06T03:18:41.687Z,1006.8
2017-02-06T03:19:07.859Z,1006.85
2017-02-06T03:19:34.056Z,1006.82
2017-02-06T03:20:00.192Z,1006.86
2017-02-06T03:20:26.344Z,1006.85
2017-02-06T03:20:52.500Z,1006.86
2017-02-06T03:21:18.628Z,1006.87
2017-02-06T03:21:44.735Z,1006.83
2017-02-06T03:22:10.896Z,1006.89
2017-02-06T03:22:37.024Z,1006.9
2017-02-06T03:23:03.183Z,1006.91
2017-02-06T03:23:29.309Z,1006.88
2017-02-06T03:23:55.468Z,1006.89
2017-02-06T03:24:21.630Z,1006.87
2017-02-06T03:24:47.724Z,1006.9
2017-02-06T03:25:13.832Z,1006.87
2017-02-06T03:25:39.951Z,1006.86
2017-02-06T03:26:06.092Z,1006.91
2017-02-06T03:26:32.264Z,1006.91
2017-02-06T03:26:58.395Z,1006.94
2017-02-06T03:27:24.553Z,1006.93
2017-02-06T03:27:50.661Z,1006.96
2017-02-06T03:28:16.819Z,1006.95
2017-02-06T03:28:42.988Z,1006.95
2017-02-06T03:29:09.130Z,1006.99
2017-02-06T03:29:35.254Z,1006.97
2017-02-06T03:30:01.444Z,1007
2017-02-06T03:30:27.613Z,1007.01
2017-02-06T03:30:53.784Z,1007
2017-02-06T03:31:19.926Z,1007
2017-02-06T03:31:46.017Z,1007.05
2017-02-06T03:32:12.162Z,1007.02
2017-02-06T03:32:38.297Z,1007.05
2017-02-06T03:33:04.387Z,1007.02
2017-02-06T03:33:30.500Z,1007.07
2017-02-06T03:33:56.661Z,1007.07
2017-02-06T03:34:22.814Z,1007.07
2017-02-06T03:34:48.958Z,1007.11
2017-02-06T03:35:15.092Z,1007.08
2017-02-06T03:35:41.283Z,1007.08
2017-02-06T03:36:07.422Z,1007.11
2017-02-06T03:36:33.584Z,1007.11
2017-02-06T03:36:59.698Z,1007.11
2017-02-06T03:37:25.886Z,1007.15
2017-02-06T03:37:52.036Z,1007.11
2017-02-06T03:38:18.154Z,1007.15
2017-02-06T03:38:44.284Z,1007.15
2017-02-06T03:39:10.477Z,1007.14
2017-02-06T03:39:36.583Z,1007.18
2017-02-06T03:40:02.718Z,1007.19
2017-02-06T03:40:28.819Z,1007.2
2017-02-06T03:40:54.967Z,1007.18
2017-02-06T03:41:21.131Z,1007.22
2017-02-06T03:41:47.266Z,1007.23
2017-02-06T03:42:13.478Z,1007.21
2017-02-06T03:42:39.635Z,1007.22
2017-02-06T03:43:05.754Z,1007.24
2017-02-06T03:43:31.880Z,1007.26
2017-02-06T03:43:57.987Z,1007.27
2017-02-06T03:44:24.099Z,1007.27
2017-02-06T03:44:50.221Z,1007.27
2017-02-06T03:45:16.356Z,1007.28
2017-02-06T03:45:42.481Z,1007.28
2017-02-06T03:46:08.626Z,1007.26
2017-02-06T03:46:34.784Z,1007.31
2017-02-06T03:47:00.909Z,1007.28
2017-02-06T03:47:27.063Z,1007.3
2017-02-06T03:47:53.255Z,1007.29
2017-02-06T03:48:19.439Z,1007.32
2017-02-06T03:48:45.560Z,1007.34
2017-02-06T03:49:11.725Z,1007.3
2017-02-06T03:49:37.850Z,1007.32
2017-02-06T03:50:03.992Z,1007.32
2017-02-06T03:50:30.115Z,1007.34
2017-02-06T03:50:57.525Z,1007.35
2017-02-06T03:51:24.052Z,1007.36
2017-02-06T03:51:50.778Z,1007.35
2017-02-06T03:52:17.577Z,1007.38
2017-02-06T03:52:43.922Z,1007.37
2017-02-06T03:53:10.735Z,1007.38
2017-02-06T03:53:38.363Z,1007.38
2017-02-06T03:54:05.825Z,1007.38
2017-02-06T03:54:33.182Z,1007.41
2017-02-06T03:54:59.735Z,1007.42
2017-02-06T03:55:27.448Z,1007.44
2017-02-06T03:55:55.248Z,1007.41
2017-02-06T03:56:22.319Z,1007.44
2017-02-06T03:56:49.646Z,1007.48
2017-02-06T03:57:17.222Z,1007.46
2017-02-06T03:57:44.100Z,1007.45
2017-02-06T03:58:10.213Z,1007.45
2017-02-06T03:58:36.421Z,1007.48
2017-02-06T03:59:02.579Z,1007.48
2017-02-06T03:59:28.694Z,1007.48
2017-02-06T03:59:54.825Z,1007.53
2017-02-06T04:00:20.984Z,1007.47
2017-02-06T04:00:47.110Z,1007.5
2017-02-06T04:01:13.238Z,1007.48
2017-02-06T04:01:39.345Z,1007.51
2017-02-06T04:02:05.450Z,1007.49
2017-02-06T04:02:31.626Z,1007.5
2017-02-06T04:02:57.798Z,1007.52
2017-02-06T04:03:23.920Z,1007.52
2017-02-06T04:03:50.021Z,1007.51
2017-02-06T04:04:16.462Z,1007.51
2017-02-06T04:04:42.655Z,1007.54
2017-02-06T04:05:09.048Z,1007.52
2017-02-06T04:05:35.199Z,1007.53
2017-02-06T04:06:01.380Z,1007.52
2017-02-06T04:06:27.540Z,1007.54
2017-02-06T04:06:53.684Z,1007.53
2017-02-06T04:07:19.859Z,1007.56
2017-02-06T04:07:45.967Z,1007.57
2017-02-06T04:08:12.156Z,1007.55
2017-02-06T04:08:38.265Z,1007.55
2017-02-06T04:09:04.630Z,1007.59
2017-02-06T04:09:30.773Z,1007.58
2017-02-06T04:09:56.988Z,1007.62
2017-02-06T04:10:23.201Z,1007.6
2017-02-06T04:10:49.317Z,1007.62
2017-02-06T04:11:15.502Z,1007.59
2017-02-06T04:11:41.570Z,1007.56
2017-02-06T04:12:07.740Z,1007.59
2017-02-06T04:12:33.929Z,1007.6
2017-02-06T04:13:00.054Z,1007.59
2017-02-06T04:13:26.190Z,1007.64
2017-02-06T04:13:52.316Z,1007.61
2017-02-06T04:14:18.484Z,1007.59
2017-02-06T04:14:44.687Z,1007.62
2017-02-06T04:15:10.813Z,1007.6
2017-02-06T04:15:36.998Z,1007.6
2017-02-06T04:16:03.134Z,1007.61
2017-02-06T04:16:29.304Z,1007.62
2017-02-06T04:16:55.444Z,1007.6
2017-02-06T04:17:21.557Z,1007.64
2017-02-06T04:17:47.680Z,1007.61
2017-02-06T04:18:13.813Z,1007.62
2017-02-06T04:18:39.969Z,1007.61
2017-02-06T04:19:06.101Z,1007.6
2017-02-06T04:19:32.254Z,1007.65
2017-02-06T04:19:58.386Z,1007.68
2017-02-06T04:20:24.537Z,1007.68
2017-02-06T04:20:50.657Z,1007.67
2017-02-06T04:21:16.825Z,1007.67
2017-02-06T04:21:43.032Z,1007.67
2017-02-06T04:22:09.173Z,1007.7
2017-02-06T04:22:35.292Z,1007.71
2017-02-06T04:23:01.458Z,1007.7
2017-02-06T04:23:27.626Z,1007.73
2017-02-06T04:23:53.722Z,1007.74
2017-02-06T04:24:19.935Z,1007.74
2017-02-06T04:24:46.115Z,1007.75
2017-02-06T04:25:12.226Z,1007.73
2017-02-06T04:25:38.359Z,1007.74
2017-02-06T04:26:04.520Z,1007.77
2017-02-06T04:26:30.686Z,1007.74
2017-02-06T04:26:56.900Z,1007.78
2017-02-06T04:27:23.105Z,1007.74
2017-02-06T04:27:49.234Z,1007.8
2017-02-06T04:28:15.379Z,1007.81
2017-02-06T04:28:41.489Z,1007.78
2017-02-06T04:29:07.641Z,1007.79
2017-02-06T04:29:33.819Z,1007.82
2017-02-06T04:29:59.934Z,1007.79
2017-02-06T04:30:26.138Z,1007.86
2017-02-06T04:30:52.303Z,1007.82
2017-02-06T04:31:18.460Z,1007.82
2017-02-06T04:31:44.588Z,1007.84
2017-02-06T04:32:10.735Z,1007.86
2017-02-06T04:32:36.887Z,1007.82
2017-02-06T04:33:03.097Z,1007.86
2017-02-06T04:33:29.183Z,1007.87
2017-02-06T04:33:55.324Z,1007.9
2017-02-06T04:34:21.526Z,1007.88
2017-02-06T04:34:47.641Z,1007.87
2017-02-06T04:35:13.790Z,1007.87
2017-02-06T04:35:39.982Z,1007.9
2017-02-06T04:36:06.115Z,1007.89
2017-02-06T04:36:32.224Z,1007.9
2017-02-06T04:36:58.390Z,1007.9
2017-02-06T04:37:24.510Z,1007.92
2017-02-06T04:37:50.618Z,1007.9
2017-02-06T04:38:16.766Z,1007.94
2017-02-06T04:38:42.889Z,1007.93
2017-02-06T04:39:09.027Z,1007.92
2017-02-06T04:39:35.232Z,1007.93
2017-02-06T04:40:01.365Z,1007.93
2017-02-06T04:40:27.531Z,1007.9
2017-02-06T04:40:53.635Z,1007.91
2017-02-06T04:41:19.751Z,1007.95
2017-02-06T04:41:45.851Z,1007.91
2017-02-06T04:42:11.988Z,1007.94
2017-02-06T04:42:38.079Z,1007.93
2017-02-06T04:43:04.235Z,1007.94
2017-02-06T04:43:30.368Z,1007.98
2017-02-06T04:43:56.503Z,1007.95
2017-02-06T04:44:22.599Z,1007.93
2017-02-06T04:44:48.745Z,1007.93
2017-02-06T04:45:14.874Z,1007.94
2017-02-06T04:45:41.012Z,1007.9
2017-02-06T04:46:07.098Z,1007.93
2017-02-06T04:46:33.246Z,1007.94
2017-02-06T04:46:59.414Z,1007.95
2017-02-06T04:47:25.550Z,1007.97
2017-02-06T04:47:51.724Z,1007.97
2017-02-06T04:48:17.854Z,1007.96
2017-02-06T04:48:43.977Z,1007.95
2017-02-06T04:49:10.118Z,1007.97
2017-02-06T04:49:36.204Z,1007.96
2017-02-06T04:50:02.358Z,1007.95
2017-02-06T04:50:28.487Z,1007.97
2017-02-06T04:50:54.633Z,1007.98
2017-02-06T04:51:20.804Z,1007.96
2017-02-06T04:51:47.032Z,1007.98
2017-02-06T04:52:13.212Z,1008
2017-02-06T04:52:39.353Z,1008.01
2017-02-06T04:53:05.520Z,1007.98
2017-02-06T04:53:31.675Z,1007.98
2017-02-06T04:53:57.807Z,1008
2017-02-06T04:54:23.928Z,1008
2017-02-06T04:54:50.046Z,1008.03
2017-02-06T04:55:16.248Z,1008.01
2017-02-06T04:55:42.339Z,1008.04
2017-02-06T04:56:08.514Z,1008.04
2017-02-06T04:56:34.647Z,1007.97
2017-02-06T04:57:00.778Z,1008.02
2017-02-06T04:57:26.946Z,1008.03
2017-02-06T04:57:53.104Z,1008.07
2017-02-06T04:58:19.253Z,1008.05
2017-02-06T04:58:45.371Z,1008.03
2017-02-06T04:59:11.474Z,1008.07
2017-02-06T04:59:37.619Z,1008.09
2017-02-06T05:00:03.726Z,1008.07
2017-02-06T05:00:29.825Z,1008.07
2017-02-06T05:00:55.955Z,1008.08
2017-02-06T05:01:22.106Z,1008.07
2017-02-06T05:01:48.230Z,1008.09
2017-02-06T05:02:14.422Z,1008.11
2017-02-06T05:02:40.574Z,1008.1
2017-02-06T05:03:06.686Z,1008.1
2017-02-06T05:03:32.881Z,1008.12
2017-02-06T05:03:59.019Z,1008.12
2017-02-06T05:04:25.110Z,1008.08
2017-02-06T05:04:51.268Z,1008.14
2017-02-06T05:05:17.382Z,1008.11
2017-02-06T05:05:43.526Z,1008.14
2017-02-06T05:06:09.642Z,1008.14
2017-02-06T05:06:35.758Z,1008.15
2017-02-06T05:07:01.920Z,1008.14
2017-02-06T05:07:28.047Z,1008.14
2017-02-06T05:07:54.214Z,1008.16
2017-02-06T05:08:20.371Z,1008.18
2017-02-06T05:08:46.463Z,1008.17
2017-02-06T05:09:12.603Z,1008.15
2017-02-06T05:09:38.732Z,1008.16
2017-02-06T05:10:04.919Z,1008.14
2017-02-06T05:10:31.068Z,1008.2
2017-02-06T05:10:57.231Z,1008.16
2017-02-06T05:11:23.315Z,1008.12
2017-02-06T05:11:49.457Z,1008.16
2017-02-06T05:12:15.617Z,1008.15
2017-02-06T05:12:41.786Z,1008.12
2017-02-06T05:13:07.920Z,1008.13
2017-02-06T05:13:34.048Z,1008.15
2017-02-06T05:14:00.162Z,1008.15
2017-02-06T05:14:26.321Z,1008.13
2017-02-06T05:14:52.517Z,1008.16
2017-02-06T05:15:18.632Z,1008.13
2017-02-06T05:15:44.753Z,1008.17
2017-02-06T05:16:10.878Z,1008.14
2017-02-06T05:16:37.024Z,1008.15
2017-02-06T05:17:03.194Z,1008.14
2017-02-06T05:17:29.298Z,1008.14
2017-02-06T05:17:55.432Z,1008.17